Main page
METAR-TAF:

METAR-TAF

Airports :

Podgorica, Montenegro

Podgorica Airport

latitude: 42-26N, longitude: 019-17E, elevation: 53 m

Current weather observation

The report was made 40 minutes ago, at 07:30 UTC
Wind 1 kt from variable directions
Temperature 2°C
Humidity 69%
Pressure 1026 hPa
Visibility 10 km or more
Few clouds at a height of 8000 ft

METAR: LYPG 040730Z VRB01KT 9999 FEW080 02/M03 Q1026 NOSIG

Time: 09:10 (08:10 UTC)

Forecast

The report was made 3 hours and 10 minutes ago, at 05:00 UTC
Forecast valid from 04 at 06 UTC to 05 at 06 UTC
Wind 5 kt from the South/Southeast
Visibility 10 km or more
Few clouds at a height of 4000 ft
Scattered clouds at a height of 9000 ft

TAF: LYPG 040500Z 0406/0506 16005KT 9999 FEW040 SCT090 TX13/0413Z TN01/0506Z

Weather observations and forecasts of more than 4000 airports (METAR and TAF reports).

The available stations are represented by yellow and red dots on the map.

Hover mouse over dot to see the name of the station.

Then click to see weather observations and forecasts.

To change the map : click on the green buttons with a black cross to zoom in, on the green button with a dash to zoom out, or on the green arrows for adjacent maps.


METAR-TAF: